Time;durP1;ratioP1;P1;durP2;ratioP2;P2;SDS_P1;SDS_P2;PMS_P1;PMS_P2;Temp;Humidity;BMP_temperature;BMP_pressure;BME280_temperature;BME280_humidity;BME280_pressure;Samples;Min_cycle;Max_cycle;Signal;HPM_P1;HPM_P2
2023/01/07 01:05:44;;;;;;;15.25;6.75;;;9.30;99.90;;;;;;6307796;22;20024;-93
2023/01/07 02:50:19;;;;;;;11.27;5.15;;;10.20;99.90;;;;;;6311559;22;20043;-89
2023/01/07 02:57:19;;;;;;;12.55;5.00;;;10.30;99.90;;;;;;6309731;22;20017;-94
2023/01/07 02:59:48;;;;;;;12.68;6.13;;;10.30;99.90;;;;;;6256911;22;20026;-93
2023/01/07 03:02:30;;;;;;;12.45;5.95;;;10.30;99.90;;;;;;6256139;22;20029;-90
2023/01/07 03:05:14;;;;;;;11.40;5.70;;;10.30;99.90;;;;;;6256398;22;20023;-95
2023/01/07 03:08:23;;;;;;;12.98;5.85;;;10.30;99.90;;;;;;6256538;22;20026;-95
2023/01/07 03:10:59;;;;;;;12.80;6.07;;;10.30;99.90;;;;;;6282231;22;20094;-91
2023/01/07 03:13:54;;;;;;;10.93;5.38;;;10.30;99.90;;;;;;6256292;22;20114;-95
2023/01/07 03:16:31;;;;;;;10.55;5.65;;;10.30;99.90;;;;;;6256934;22;20015;-90
2023/01/07 03:19:21;;;;;;;13.63;6.13;;;10.30;99.90;;;;;;6256738;22;20037;-90
2023/01/07 03:21:48;;;;;;;12.68;6.05;;;10.40;99.90;;;;;;6256061;22;20076;-95
2023/01/07 03:24:15;;;;;;;12.27;6.25;;;10.30;99.90;;;;;;6281804;22;20022;-90
2023/01/07 03:26:51;;;;;;;14.35;7.28;;;10.40;99.90;;;;;;6256874;22;20055;-92
2023/01/07 03:29:18;;;;;;;14.57;7.40;;;10.40;99.90;;;;;;6256286;22;20517;-93
2023/01/07 03:32:08;;;;;;;12.40;6.07;;;10.40;99.90;;;;;;6255929;22;20532;-91
2023/01/07 03:34:35;;;;;;;12.85;6.63;;;10.40;99.90;;;;;;6256406;22;20313;-90
2023/01/07 03:37:13;;;;;;;14.18;6.38;;;10.40;99.90;;;;;;6256199;22;20022;-92
2023/01/07 03:39:41;;;;;;;13.13;6.22;;;10.40;99.90;;;;;;6256623;22;20015;-91
2023/01/07 03:44:52;;;;;;;13.30;6.88;;;10.40;99.90;;;;;;6281895;22;20016;-93
2023/01/07 03:47:18;;;;;;;12.93;6.20;;;10.40;99.90;;;;;;6230688;22;20015;-94
2023/01/07 03:49:45;;;;;;;13.23;6.55;;;10.40;99.90;;;;;;6255736;22;20511;-94
2023/01/07 03:52:10;;;;;;;16.08;7.35;;;10.40;99.90;;;;;;6231289;22;20019;-91
2023/01/07 03:58:02;;;;;;;13.02;7.03;;;10.40;99.90;;;;;;6281458;22;20092;-90
2023/01/07 04:00:28;;;;;;;;;;;10.50;99.90;;;;;;6256713;22;20440;-95
2023/01/07 04:02:54;;;;;;;13.32;6.80;;;10.50;99.90;;;;;;6256350;22;19957;-93
2023/01/07 04:05:25;;;;;;;14.10;7.80;;;10.50;99.90;;;;;;6255844;22;20015;-90
2023/01/07 04:07:54;;;;;;;13.82;8.25;;;10.50;99.90;;;;;;6256109;22;20067;-92
2023/01/07 04:14:29;;;;;;;14.80;7.93;;;10.50;99.90;;;;;;6309630;22;20030;-90
2023/01/07 04:16:54;;;;;;;13.90;6.82;;;10.50;99.90;;;;;;6257253;22;20581;-92
2023/01/07 04:19:20;;;;;;;12.87;7.17;;;10.60;99.90;;;;;;6257821;22;20011;-92
2023/01/07 04:21:46;;;;;;;12.48;6.50;;;10.60;99.90;;;;;;6256577;22;20033;-95
2023/01/07 04:24:53;;;;;;;12.07;6.43;;;10.60;99.90;;;;;;6234423;22;20015;-96
2023/01/07 04:27:20;;;;;;;15.07;6.82;;;10.60;99.90;;;;;;6270296;22;20050;-96
2023/01/07 04:30:23;;;;;;;12.45;6.35;;;10.60;99.90;;;;;;6258969;22;20019;-92
2023/01/07 04:32:50;;;;;;;11.63;6.47;;;10.60;99.90;;;;;;6255554;22;20069;-92
2023/01/07 04:43:02;;;;;;;16.17;7.68;;;10.60;99.90;;;;;;6251927;22;20031;-94
2023/01/07 04:45:27;;;;;;;11.80;7.00;;;10.60;99.90;;;;;;6225453;22;20019;-95
2023/01/07 04:47:56;;;;;;;10.27;5.77;;;10.50;99.90;;;;;;6225324;22;20242;-89
2023/01/07 04:50:23;;;;;;;12.00;6.50;;;10.50;99.90;;;;;;6250570;22;20062;-91
2023/01/07 04:52:52;;;;;;;11.95;6.43;;;10.50;99.90;;;;;;6224942;22;20054;-95
2023/01/07 04:55:18;;;;;;;11.57;6.35;;;10.50;99.90;;;;;;6225435;22;20023;-96
2023/01/07 04:57:43;;;;;;;11.30;6.50;;;10.50;99.90;;;;;;6225610;22;20016;-94
2023/01/07 05:00:28;;;;;;;11.97;6.63;;;10.50;99.90;;;;;;6226920;22;20246;-94
2023/01/07 05:03:18;;;;;;;13.38;6.90;;;10.50;99.90;;;;;;6224807;22;20041;-88
2023/01/07 05:05:44;;;;;;;12.48;6.97;;;10.50;99.90;;;;;;6225188;22;20337;-93
2023/01/07 05:08:10;;;;;;;13.35;7.35;;;10.50;99.90;;;;;;6226170;22;20050;-95
2023/01/07 05:10:36;;;;;;;12.88;7.03;;;10.50;99.90;;;;;;6225723;22;20012;-94
2023/01/07 05:13:04;;;;;;;14.17;6.80;;;10.50;99.90;;;;;;6225356;22;20031;-90
2023/01/07 05:15:30;;;;;;;12.60;7.10;;;10.50;99.90;;;;;;6225039;22;20433;-95
2023/01/07 05:25:00;;;;;;;11.57;6.28;;;10.50;99.90;;;;;;6277479;22;20014;-95
2023/01/07 05:27:38;;;;;;;14.48;6.68;;;10.50;99.90;;;;;;6199750;22;20441;-94
2023/01/07 05:30:05;;;;;;;11.35;6.32;;;10.50;99.90;;;;;;6225112;22;20047;-94
2023/01/07 05:32:52;;;;;;;12.45;6.50;;;10.50;99.90;;;;;;6225199;22;20015;-93
2023/01/07 05:35:18;;;;;;;11.30;6.30;;;10.50;99.90;;;;;;6225084;22;20495;-95
2023/01/07 05:37:44;;;;;;;11.17;6.17;;;10.40;99.90;;;;;;6200790;22;20007;-95
2023/01/07 05:40:10;;;;;;;11.73;6.03;;;10.50;99.90;;;;;;6226685;22;20019;-93
2023/01/07 05:43:01;;;;;;;11.10;6.10;;;10.40;99.90;;;;;;6177233;22;20016;-90
2023/01/07 05:45:27;;;;;;;12.32;5.93;;;10.50;99.90;;;;;;6197001;23;20425;-91
2023/01/07 05:47:53;;;;;;;10.27;5.50;;;10.40;99.90;;;;;;6172374;23;20050;-91
2023/01/07 05:50:18;;;;;;;12.07;6.17;;;10.40;99.90;;;;;;6221772;23;20273;-95
2023/01/07 05:52:44;;;;;;;12.70;6.40;;;10.40;99.90;;;;;;6222030;23;20013;-89
2023/01/07 05:55:10;;;;;;;11.50;6.60;;;10.40;99.90;;;;;;6221815;23;20091;-93
2023/01/07 05:57:36;;;;;;;11.13;5.27;;;10.40;99.90;;;;;;6196787;23;20103;-94
2023/01/07 06:00:02;;;;;;;11.73;5.90;;;10.40;99.90;;;;;;6172002;23;20643;-94
2023/01/07 06:02:28;;;;;;;;;;;10.40;99.90;;;;;;6249736;23;20016;-90
2023/01/07 06:04:54;;;;;;;11.23;5.32;;;10.40;99.90;;;;;;6196421;23;20049;-89
2023/01/07 06:07:19;;;;;;;10.57;5.47;;;10.40;99.90;;;;;;6196947;23;20047;-94
2023/01/07 06:09:45;;;;;;;9.07;5.27;;;10.40;99.90;;;;;;6196974;23;20092;-93
2023/01/07 06:12:11;;;;;;;8.97;5.07;;;10.40;99.90;;;;;;6171498;23;20023;-94
2023/01/07 06:14:37;;;;;;;12.17;4.87;;;10.40;99.90;;;;;;6172228;23;20071;-91
2023/01/07 06:17:02;;;;;;;10.20;5.07;;;10.40;99.90;;;;;;6246641;22;20262;-93
2023/01/07 06:19:28;;;;;;;9.90;4.67;;;10.40;99.90;;;;;;6196737;23;20020;-94
2023/01/07 06:21:54;;;;;;;9.43;4.47;;;10.40;99.90;;;;;;6196334;23;20017;-93
2023/01/07 06:24:19;;;;;;;8.47;4.73;;;10.40;99.90;;;;;;6196345;23;20019;-93
2023/01/07 06:27:08;;;;;;;10.60;4.87;;;10.40;99.90;;;;;;6197108;23;20023;-95
2023/01/07 06:29:34;;;;;;;9.18;5.07;;;10.40;99.90;;;;;;6196123;23;20016;-94
2023/01/07 06:32:25;;;;;;;8.77;4.77;;;10.40;99.90;;;;;;6195992;23;20074;-94
2023/01/07 06:34:50;;;;;;;9.75;4.78;;;10.40;99.90;;;;;;6196062;23;20341;-94
2023/01/07 06:37:16;;;;;;;10.20;5.30;;;10.40;99.90;;;;;;6195724;23;20078;-90
2023/01/07 06:39:43;;;;;;;8.02;4.68;;;10.40;99.90;;;;;;6221417;23;20532;-93
2023/01/07 06:42:08;;;;;;;8.98;4.60;;;10.40;99.90;;;;;;6220778;23;20012;-89
2023/01/07 06:44:34;;;;;;;9.13;4.73;;;10.40;99.90;;;;;;6214877;22;20020;-92
2023/01/07 06:47:44;;;;;;;9.07;4.70;;;10.40;99.90;;;;;;6226381;22;20072;-93
2023/01/07 06:53:51;;;;;;;7.43;4.05;;;10.30;99.90;;;;;;6278048;22;20030;-90
2023/01/07 06:56:17;;;;;;;8.83;4.60;;;10.30;99.90;;;;;;6225929;22;20407;-91
2023/01/07 06:59:03;;;;;;;8.40;4.27;;;10.30;99.90;;;;;;6225703;22;20020;-93
2023/01/07 07:01:47;;;;;;;7.40;3.60;;;10.30;99.90;;;;;;6225474;22;20345;-93
2023/01/07 07:04:13;;;;;;;7.82;3.95;;;10.30;99.90;;;;;;6226141;22;20062;-91
2023/01/07 07:07:01;;;;;;;6.33;3.57;;;10.30;99.90;;;;;;6226043;22;20015;-94
2023/01/07 07:09:26;;;;;;;;;;;10.20;99.90;;;;;;6226499;22;20025;-89
2023/01/07 07:11:52;;;;;;;7.72;4.10;;;10.20;99.90;;;;;;6251303;22;19966;-92
2023/01/07 07:14:18;;;;;;;7.97;4.07;;;10.20;99.90;;;;;;6225842;22;20112;-91
2023/01/07 07:16:43;;;;;;;7.60;3.37;;;10.20;99.90;;;;;;6225812;22;20072;-94
2023/01/07 07:19:09;;;;;;;8.60;4.30;;;10.20;99.90;;;;;;6226028;22;20502;-88
2023/01/07 07:21:35;;;;;;;8.17;4.60;;;10.20;99.90;;;;;;6226286;22;20023;-94
2023/01/07 07:24:00;;;;;;;8.13;4.20;;;10.20;99.90;;;;;;6225781;22;20460;-94
2023/01/07 07:26:26;;;;;;;8.23;4.00;;;10.20;99.90;;;;;;6225871;22;20098;-90
2023/01/07 07:28:52;;;;;;;9.00;4.30;;;10.20;99.90;;;;;;6251364;22;20019;-89
2023/01/07 07:31:17;;;;;;;9.10;3.80;;;10.20;99.90;;;;;;6278007;22;20570;-94
2023/01/07 07:33:43;;;;;;;7.07;3.73;;;10.20;99.90;;;;;;6225595;22;20026;-88
2023/01/07 07:36:09;;;;;;;9.93;4.57;;;10.20;99.90;;;;;;6225692;22;20095;-92
2023/01/07 07:38:35;;;;;;;8.63;4.13;;;10.20;99.90;;;;;;6225859;22;20470;-90
2023/01/07 07:41:00;;;;;;;7.03;3.80;;;10.30;99.90;;;;;;6225601;22;20018;-94
2023/01/07 07:43:26;;;;;;;8.07;4.00;;;10.30;99.90;;;;;;6225514;22;20027;-89
2023/01/07 07:45:52;;;;;;;7.27;3.77;;;10.30;99.90;;;;;;6225815;22;20031;-87
2023/01/07 07:48:18;;;;;;;8.47;4.17;;;10.30;99.90;;;;;;6225640;22;20051;-93
2023/01/07 07:50:44;;;;;;;7.87;3.87;;;10.30;99.90;;;;;;6200765;22;20018;-91
2023/01/07 07:53:10;;;;;;;7.68;3.83;;;10.30;99.90;;;;;;6225150;22;20019;-94
2023/01/07 07:55:37;;;;;;;7.70;3.75;;;10.30;99.90;;;;;;6225810;22;20012;-93
2023/01/07 07:58:03;;;;;;;9.27;3.90;;;10.30;99.90;;;;;;6200785;22;20464;-89
2023/01/07 08:00:29;;;;;;;6.33;3.43;;;10.20;99.90;;;;;;6225518;22;20332;-90
2023/01/07 08:02:58;;;;;;;7.43;3.75;;;10.20;99.90;;;;;;6175869;22;20308;-92
2023/01/07 08:05:24;;;;;;;6.18;3.45;;;10.20;99.90;;;;;;6225215;22;20054;-93
2023/01/07 08:07:50;;;;;;;6.55;3.65;;;10.20;99.90;;;;;;6225456;22;20018;-95
2023/01/07 08:10:16;;;;;;;6.00;3.60;;;10.20;99.90;;;;;;6225582;22;20054;-88
2023/01/07 08:12:42;;;;;;;8.20;3.35;;;10.20;99.90;;;;;;6224993;22;20016;-92
2023/01/07 08:15:08;;;;;;;6.73;3.30;;;10.20;99.90;;;;;;6225578;22;20026;-92
2023/01/07 08:17:37;;;;;;;7.57;3.50;;;10.20;99.90;;;;;;6200166;22;20011;-94
2023/01/07 08:20:04;;;;;;;6.07;3.00;;;10.20;99.90;;;;;;6225221;22;20471;-92
2023/01/07 08:22:48;;;;;;;6.13;2.88;;;10.20;99.90;;;;;;6226053;22;20011;-92
2023/01/07 08:25:14;;;;;;;5.82;2.92;;;10.20;99.90;;;;;;6225451;22;20341;-92
2023/01/07 08:27:40;;;;;;;6.47;2.70;;;10.20;99.90;;;;;;6200091;22;20011;-94
2023/01/07 08:30:06;;;;;;;6.63;2.53;;;10.20;99.90;;;;;;6200487;22;20471;-93
2023/01/07 08:32:32;;;;;;;5.22;2.80;;;10.20;99.90;;;;;;6199916;22;20375;-88
2023/01/07 08:34:57;;;;;;;7.13;3.03;;;10.20;99.90;;;;;;6225112;22;20103;-94
2023/01/07 08:37:23;;;;;;;5.23;2.57;;;10.20;99.90;;;;;;6250494;22;20098;-88
2023/01/07 08:39:49;;;;;;;5.17;2.27;;;10.10;99.90;;;;;;6225057;22;20094;-93
2023/01/07 08:42:15;;;;;;;6.40;3.30;;;10.10;99.90;;;;;;6250194;22;20050;-93
2023/01/07 08:44:40;;;;;;;5.43;2.30;;;10.10;99.90;;;;;;6199651;22;20015;-93
2023/01/07 08:47:06;;;;;;;5.20;2.53;;;10.10;99.90;;;;;;6224884;22;20095;-90
2023/01/07 08:49:32;;;;;;;5.23;2.43;;;10.10;99.90;;;;;;6250600;22;20020;-92
2023/01/07 08:51:57;;;;;;;5.43;2.67;;;10.10;99.90;;;;;;6224978;22;20146;-92
2023/01/07 08:54:23;;;;;;;4.43;2.03;;;10.10;99.90;;;;;;6200250;22;20480;-94
2023/01/07 08:56:49;;;;;;;4.90;2.33;;;10.10;99.90;;;;;;6275941;22;20429;-93
2023/01/07 08:59:15;;;;;;;6.50;2.37;;;10.10;99.90;;;;;;6250397;22;20479;-93
2023/01/07 09:01:40;;;;;;;6.47;2.70;;;10.10;99.90;;;;;;6200139;22;20020;-93
2023/01/07 09:04:06;;;;;;;5.03;2.17;;;10.10;99.90;;;;;;6224838;22;20068;-88
2023/01/07 09:06:32;;;;;;;4.77;2.23;;;10.10;99.90;;;;;;6224828;22;20039;-90
2023/01/07 09:08:57;;;;;;;5.30;2.43;;;10.10;99.90;;;;;;6224823;22;20342;-92
2023/01/07 09:11:23;;;;;;;6.40;1.90;;;10.10;99.90;;;;;;6199928;22;20027;-89
2023/01/07 09:13:49;;;;;;;4.67;2.10;;;10.10;99.90;;;;;;6201323;22;20016;-95
2023/01/07 09:16:15;;;;;;;4.37;2.10;;;10.10;99.90;;;;;;6226973;22;20081;-93
2023/01/07 09:18:40;;;;;;;3.57;1.77;;;10.10;99.90;;;;;;6227061;22;20077;-90
2023/01/07 09:21:06;;;;;;;5.93;2.20;;;10.10;99.90;;;;;;6252244;22;20069;-91
2023/01/07 09:23:32;;;;;;;4.23;2.10;;;10.10;99.90;;;;;;6226997;22;20027;-92
2023/01/07 09:25:57;;;;;;;4.67;2.10;;;10.10;99.90;;;;;;6201811;22;20022;-90
2023/01/07 09:28:23;;;;;;;5.33;2.07;;;10.10;99.90;;;;;;6227196;22;20161;-93
2023/01/07 09:30:49;;;;;;;4.80;1.90;;;10.10;99.90;;;;;;6200190;22;20022;-92
2023/01/07 09:33:15;;;;;;;5.43;2.07;;;10.10;99.90;;;;;;6225311;22;20448;-89
2023/01/07 09:35:40;;;;;;;3.70;1.77;;;10.10;99.90;;;;;;6226829;22;20023;-91
2023/01/07 09:38:06;;;;;;;3.27;1.43;;;10.10;99.90;;;;;;6227028;22;20250;-93
2023/01/07 09:40:39;;;;;;;4.83;2.00;;;10.10;99.90;;;;;;6226960;22;20103;-91
2023/01/07 09:43:15;;;;;;;4.35;1.83;;;10.10;99.90;;;;;;6226657;22;20076;-92
2023/01/07 09:45:46;;;;;;;4.07;2.00;;;10.10;99.90;;;;;;6226846;22;20024;-92
2023/01/07 09:48:20;;;;;;;4.78;1.90;;;10.20;99.90;;;;;;6226465;22;20008;-90
2023/01/07 09:51:27;;;;;;;3.42;1.40;;;10.20;99.90;;;;;;6226504;22;20340;-89
2023/01/07 09:53:58;;;;;;;4.00;1.55;;;10.20;99.90;;;;;;6250538;22;20019;-90
2023/01/07 09:56:32;;;;;;;4.25;1.67;;;10.20;99.90;;;;;;6251945;22;20062;-88
2023/01/07 09:58:59;;;;;;;4.15;1.73;;;10.20;99.90;;;;;;6252196;22;20020;-94
2023/01/07 10:01:54;;;;;;;3.67;1.63;;;10.20;99.90;;;;;;6226974;22;20019;-93
2023/01/07 10:04:44;;;;;;;5.18;1.65;;;10.20;99.90;;;;;;6209946;22;20069;-94
2023/01/07 10:07:12;;;;;;;3.28;1.35;;;10.20;99.90;;;;;;6226818;22;20023;-94
2023/01/07 10:09:55;;;;;;;3.10;1.35;;;10.20;99.90;;;;;;6252218;22;20022;-93
2023/01/07 10:12:32;;;;;;;3.55;1.60;;;10.20;99.90;;;;;;6226600;22;20016;-91
2023/01/07 10:15:34;;;;;;;3.40;1.33;;;10.20;99.90;;;;;;6226851;22;20460;-93
2023/01/07 10:18:44;;;;;;;3.38;1.42;;;10.20;99.90;;;;;;6226012;22;20018;-89
2023/01/07 10:21:22;;;;;;;3.72;1.45;;;10.20;99.90;;;;;;6226634;22;20018;-93
2023/01/07 10:24:02;;;;;;;4.13;1.55;;;10.20;99.90;;;;;;6226195;22;20022;-94
2023/01/07 10:26:31;;;;;;;3.58;1.30;;;10.20;99.90;;;;;;6226618;22;20046;-95
2023/01/07 10:29:07;;;;;;;3.60;1.50;;;10.20;99.90;;;;;;6225754;22;20019;-94
2023/01/07 10:35:52;;;;;;;2.60;1.10;;;10.20;99.90;;;;;;6278201;22;20030;-93
2023/01/07 10:38:38;;;;;;;2.90;1.20;;;10.30;99.90;;;;;;6252308;22;20020;-93
2023/01/07 10:41:38;;;;;;;3.90;1.52;;;10.30;99.90;;;;;;6226234;22;20073;-94
2023/01/07 10:44:50;;;;;;;3.42;1.60;;;10.30;99.90;;;;;;6250926;22;20019;-92
2023/01/07 10:51:28;;;;;;;4.80;1.23;;;10.40;99.90;;;;;;6280051;22;20349;-95
2023/01/07 10:54:14;;;;;;;3.47;1.55;;;10.40;99.90;;;;;;6250489;22;20054;-95
2023/01/07 10:56:56;;;;;;;4.43;1.30;;;10.40;99.90;;;;;;6227697;22;20096;-95
2023/01/07 10:59:24;;;;;;;4.40;1.20;;;10.40;99.90;;;;;;6252618;22;20102;-96
2023/01/07 11:01:57;;;;;;;3.10;0.98;;;10.40;99.90;;;;;;6253219;22;20449;-96
2023/01/07 11:04:23;;;;;;;2.75;1.27;;;10.40;99.90;;;;;;6254672;22;20023;-96
2023/01/07 11:07:21;;;;;;;3.85;1.45;;;10.40;99.90;;;;;;6204367;22;20011;-96
2023/01/07 11:10:20;;;;;;;2.92;1.17;;;10.50;99.90;;;;;;6201656;22;20122;-95
2023/01/07 11:12:53;;;;;;;3.47;1.00;;;10.50;99.90;;;;;;6227344;22;20016;-95
2023/01/07 11:16:08;;;;;;;2.47;1.02;;;10.50;99.90;;;;;;6279393;22;20027;-96
2023/01/07 11:22:37;;;;;;;3.88;1.00;;;10.50;99.90;;;;;;6241273;22;20095;-90
2023/01/07 11:25:35;;;;;;;2.85;1.20;;;10.50;99.90;;;;;;6175564;23;20016;-94
2023/01/07 11:28:02;;;;;;;4.28;1.27;;;10.50;99.90;;;;;;6194877;23;20018;-91
2023/01/07 11:30:41;;;;;;;2.70;1.10;;;10.60;99.90;;;;;;6220673;23;20016;-91
2023/01/07 11:37:07;;;;;;;;;;;10.70;99.90;;;;;;6102109;23;20057;-94
2023/01/07 11:39:40;;;;;;;2.95;1.10;;;10.70;99.90;;;;;;6105167;23;19917;-94
2023/01/07 11:42:45;;;;;;;2.57;0.90;;;10.70;99.90;;;;;;6159732;23;20012;-94
2023/01/07 11:45:21;;;;;;;2.97;1.02;;;10.70;99.90;;;;;;6198596;23;20429;-93
2023/01/07 11:47:57;;;;;;;2.45;1.02;;;10.80;99.90;;;;;;6194617;23;20024;-94
2023/01/07 11:51:09;;;;;;;2.17;0.82;;;10.80;99.90;;;;;;6194698;23;20463;-93
2023/01/07 11:53:54;;;;;;;2.40;0.90;;;10.80;99.90;;;;;;6196109;23;20532;-95
2023/01/07 11:56:28;;;;;;;2.30;0.95;;;10.80;99.90;;;;;;6214057;22;20475;-95
2023/01/07 11:59:26;;;;;;;2.53;0.80;;;10.80;99.90;;;;;;6221638;23;20489;-96
2023/01/07 12:02:00;;;;;;;2.10;0.65;;;10.80;99.90;;;;;;6194537;23;20098;-95
2023/01/07 12:07:11;;;;;;;2.25;0.98;;;10.80;99.90;;;;;;6308434;22;20023;-95
2023/01/07 12:09:39;;;;;;;2.70;0.73;;;10.90;99.90;;;;;;6255888;22;20019;-92
2023/01/07 12:12:30;;;;;;;1.73;0.80;;;10.80;99.90;;;;;;6256032;22;20019;-94
2023/01/07 12:15:20;;;;;;;2.13;0.73;;;10.90;99.90;;;;;;6255782;22;20019;-92
2023/01/07 12:18:26;;;;;;;2.25;0.75;;;10.80;99.90;;;;;;6259463;22;20108;-93
2023/01/07 12:21:14;;;;;;;2.08;0.65;;;10.80;99.90;;;;;;6281645;22;20076;-90
2023/01/07 12:24:04;;;;;;;1.98;0.70;;;10.80;99.90;;;;;;6255692;22;20023;-91
2023/01/07 12:27:00;;;;;;;2.75;0.90;;;10.80;99.90;;;;;;6255430;22;20026;-91
2023/01/07 12:29:44;;;;;;;2.83;0.90;;;10.80;99.90;;;;;;6308263;22;20019;-92
2023/01/07 12:32:28;;;;;;;2.10;0.70;;;10.80;99.90;;;;;;6255559;22;20019;-92
2023/01/07 13:04:23;;;;;;;1.15;0.50;;;10.90;99.90;;;;;;6307390;22;20030;-92
2023/01/07 13:06:54;;;;;;;1.38;0.65;;;10.80;99.90;;;;;;6280693;22;20019;-90
2023/01/07 13:09:36;;;;;;;1.85;0.65;;;10.90;99.90;;;;;;6255083;22;20015;-93
2023/01/07 13:13:06;;;;;;;2.03;0.68;;;10.90;99.90;;;;;;6255478;22;20016;-92
2023/01/07 13:34:32;;;;;;;;;;;;;;;;;;;;;
2023/01/07 13:37:22;;;;;;;0.60;0.40;;;10.70;99.90;;;;;;6280609;22;20037;-91
2023/01/07 13:40:14;;;;;;;1.17;0.50;;;10.70;99.90;;;;;;6254541;22;20080;-89
2023/01/07 13:42:50;;;;;;;1.92;0.50;;;10.60;99.90;;;;;;6280395;22;20011;-89
2023/01/07 14:05:13;;;;;;;1.25;0.50;;;10.50;99.90;;;;;;6309186;22;20952;-91
2023/01/07 14:08:02;;;;;;;1.48;0.60;;;10.50;99.90;;;;;;6257066;22;20019;-92
2023/01/07 14:10:39;;;;;;;1.88;0.57;;;10.50;99.90;;;;;;6257246;22;20456;-90
2023/01/07 14:42:37;;;;;;;1.90;0.70;;;10.30;99.90;;;;;;6309121;22;20019;-89
2023/01/07 14:45:35;;;;;;;2.28;0.70;;;10.30;99.90;;;;;;6256750;22;20094;-90
2023/01/07 14:49:04;;;;;;;2.15;0.60;;;10.30;99.90;;;;;;6241062;22;20019;-91
2023/01/07 14:51:48;;;;;;;1.87;0.97;;;10.30;99.90;;;;;;6134708;23;20498;-89
2023/01/07 14:54:34;;;;;;;1.58;0.80;;;10.20;99.90;;;;;;6253749;22;20095;-90
2023/01/07 14:57:17;;;;;;;3.08;0.93;;;10.20;99.90;;;;;;6254639;22;20019;-89
2023/01/07 15:00:10;;;;;;;1.85;0.70;;;10.20;99.90;;;;;;6256156;22;20022;-90
2023/01/07 15:03:06;;;;;;;2.35;0.73;;;10.20;99.90;;;;;;6256203;22;20019;-89
2023/01/07 15:06:07;;;;;;;1.70;0.65;;;10.10;99.90;;;;;;6256292;22;20019;-90
2023/01/07 15:17:06;;;;;;;2.55;0.88;;;10.00;99.90;;;;;;6281341;22;20084;-89
2023/01/07 15:19:37;;;;;;;11.05;2.30;;;10.00;99.90;;;;;;6255605;22;20055;-89
2023/01/07 15:22:12;;;;;;;2.25;0.80;;;9.90;99.90;;;;;;6255651;22;20015;-89
2023/01/07 15:25:15;;;;;;;1.50;0.75;;;9.90;99.90;;;;;;6255765;22;20015;-90
2023/01/07 15:28:20;;;;;;;2.40;0.73;;;9.90;99.90;;;;;;6255528;22;20019;-91
2023/01/07 15:31:06;;;;;;;2.00;0.80;;;9.80;99.90;;;;;;6256073;22;20015;-90
2023/01/07 15:33:47;;;;;;;7.10;4.85;;;9.80;99.90;;;;;;6255510;22;20019;-90
2023/01/07 15:36:19;;;;;;;1.73;0.90;;;9.80;99.90;;;;;;6281519;22;20011;-92
2023/01/07 15:38:51;;;;;;;3.55;1.15;;;9.80;99.90;;;;;;6255621;22;20119;-89
2023/01/07 15:41:38;;;;;;;2.88;1.00;;;9.80;99.90;;;;;;6281021;22;20019;-90
2023/01/07 15:44:12;;;;;;;1.92;0.70;;;9.80;99.90;;;;;;6255394;22;20015;-92
2023/01/07 15:46:39;;;;;;;2.17;0.63;;;9.80;99.90;;;;;;6255423;22;20019;-90
2023/01/07 15:49:14;;;;;;;1.85;0.80;;;9.70;99.90;;;;;;6256918;22;20072;-91
2023/01/07 15:51:46;;;;;;;2.28;0.80;;;9.70;99.90;;;;;;6256014;22;20069;-91
2023/01/07 15:54:34;;;;;;;1.60;0.90;;;9.70;99.90;;;;;;6256323;22;20015;-91
2023/01/07 16:00:02;;;;;;;2.50;1.20;;;9.60;99.90;;;;;;6282085;22;20444;-91
2023/01/07 16:05:55;;;;;;;3.10;1.02;;;9.60;99.90;;;;;;6106531;23;20336;-93
2023/01/07 16:08:41;;;;;;;2.45;1.10;;;9.60;99.90;;;;;;6251493;22;20030;-95
2023/01/07 16:11:22;;;;;;;3.00;1.00;;;9.60;99.90;;;;;;6257636;22;20011;-95
2023/01/07 17:26:32;;;;;;;3.40;1.23;;;9.70;99.90;;;;;;6307023;22;20448;-92
2023/01/07 17:29:08;;;;;;;2.70;1.20;;;9.60;99.90;;;;;;6255962;22;20023;-95
2023/01/07 17:31:59;;;;;;;2.85;1.23;;;9.60;99.90;;;;;;6255478;22;20071;-94
2023/01/07 17:58:11;;;;;;;2.88;1.50;;;9.50;99.90;;;;;;6315263;22;20101;-95
2023/01/07 18:01:16;;;;;;;4.22;1.38;;;9.50;99.90;;;;;;6264624;22;20018;-95
2023/01/07 18:03:45;;;;;;;4.03;1.60;;;9.50;99.90;;;;;;6288099;22;20015;-95
2023/01/07 18:06:23;;;;;;;5.15;1.58;;;9.50;99.90;;;;;;6262861;22;20025;-93
2023/01/07 18:08:50;;;;;;;3.97;1.42;;;9.50;99.90;;;;;;6287911;22;20011;-93
2023/01/07 18:14:03;;;;;;;4.75;1.58;;;9.50;99.90;;;;;;6313550;22;20024;-91
2023/01/07 18:16:57;;;;;;;3.58;1.60;;;9.50;99.90;;;;;;6262707;22;20083;-93
2023/01/07 18:19:23;;;;;;;5.43;1.80;;;9.50;99.90;;;;;;6287852;22;20386;-93
2023/01/07 19:56:09;;;;;;;4.13;1.80;;;9.40;99.90;;;;;;6215730;23;20028;-92
2023/01/07 19:58:36;;;;;;;3.88;1.50;;;9.40;99.90;;;;;;6165968;23;20016;-91
2023/01/07 20:01:09;;;;;;;4.13;1.50;;;9.40;99.90;;;;;;6165538;23;20051;-92
2023/01/07 20:03:35;;;;;;;4.15;1.60;;;9.40;99.90;;;;;;6166173;23;20021;-93
